Time,TemperatureF,DewpointF,PressureIn,WindDirection,WindDirectionDegrees,WindSpeedMPH,WindSpeedGustMPH,Humidity,HourlyPrecipIn,Conditions,Clouds,dailyrainin,SolarRadiationWatts/m^2,SoftwareType,DateUTC
2013-07-01 00:00:00,64.0,59.0,30.27,SW,230,3.0,-999.0,86,-99.99,,,-99.99,0.000000,,2013-07-01 06:00:00,
2013-07-01 02:00:00,62.0,58.0,30.28,SW,217,5.0,-999.0,87,-99.99,,,-99.99,0.000000,,2013-07-01 08:00:00,
2013-07-01 03:00:00,60.0,57.0,30.28,SW,229,6.0,-999.0,89,-99.99,,,-99.99,0.000000,,2013-07-01 09:00:00,
2013-07-01 03:53:00,60.0,57.0,30.28,SW,229,6.0,-999.0,89,-99.99,,,-99.99,0.000000,,2013-07-01 09:53:00,
2013-07-01 04:00:00,59.0,56.0,30.28,SW,233,5.0,-999.0,93,-99.99,,,-99.99,0.000000,,2013-07-01 10:00:00,
2013-07-01 04:52:00,59.0,56.0,30.28,SW,233,5.0,-999.0,93,-99.99,,,-99.99,0.000000,,2013-07-01 10:52:00,
2013-07-01 05:00:00,57.0,56.0,30.29,WSW,247,4.0,-999.0,96,-99.99,,,-99.99,0.000000,,2013-07-01 11:00:00,
2013-07-01 05:52:00,57.0,56.0,30.29,WSW,247,4.0,-999.0,96,-99.99,,,-99.99,0.000000,,2013-07-01 11:52:00,
2013-07-01 06:00:00,58.0,57.0,30.29,WSW,247,4.0,-999.0,94,-99.99,,,-99.99,8.400000,,2013-07-01 12:00:00,
2013-07-01 06:53:00,58.0,57.0,30.29,WSW,247,4.0,-999.0,94,-99.99,,,-99.99,8.400000,,2013-07-01 12:53:00,
2013-07-01 07:00:00,63.0,60.0,30.30,West,264,3.0,-999.0,88,-99.99,,,-99.99,95.400002,,2013-07-01 13:00:00,
2013-07-01 07:53:00,63.0,60.0,30.30,West,264,3.0,-999.0,88,-99.99,,,-99.99,95.400002,,2013-07-01 13:53:00,
2013-07-01 08:00:00,72.0,60.0,30.30,West,268,2.0,-999.0,68,-99.99,,,-99.99,228.699997,,2013-07-01 14:00:00,
2013-07-01 09:00:00,73.0,60.0,30.31,NNW,336,5.0,-999.0,64,-99.99,,,-99.99,376.299988,,2013-07-01 15:00:00,
2013-07-01 09:53:00,73.0,60.0,30.31,NNW,336,5.0,-999.0,64,-99.99,,,-99.99,376.299988,,2013-07-01 15:53:00,
2013-07-01 10:00:00,76.0,62.0,30.31,NNW,347,5.0,-999.0,63,-99.99,,,-99.99,515.099976,,2013-07-01 16:00:00,
2013-07-01 10:53:00,76.0,62.0,30.31,NNW,347,5.0,-999.0,63,-99.99,,,-99.99,515.099976,,2013-07-01 16:53:00,
2013-07-01 11:00:00,77.0,60.0,30.32,North,3,5.0,-999.0,57,-99.99,,,-99.99,638.599976,,2013-07-01 17:00:00,
2013-07-01 12:00:00,79.0,59.0,30.31,NNE,17,6.0,-999.0,52,-99.99,,,-99.99,738.599976,,2013-07-01 18:00:00,
2013-07-01 12:53:00,79.0,59.0,30.31,NNE,17,6.0,-999.0,52,-99.99,,,-99.99,738.599976,,2013-07-01 18:53:00,
2013-07-01 13:00:00,80.0,56.0,30.30,NE,36,5.0,-999.0,44,-99.99,,,-99.99,778.700012,,2013-07-01 19:00:00,
2013-07-01 14:00:00,81.0,56.0,30.30,NNE,29,5.0,-999.0,42,-99.99,,,-99.99,791.400024,,2013-07-01 20:00:00,
2013-07-01 14:52:00,81.0,56.0,30.30,NNE,29,5.0,-999.0,42,-99.99,,,-99.99,791.400024,,2013-07-01 20:52:00,
2013-07-01 15:00:00,82.0,51.0,30.28,NE,39,6.0,-999.0,34,-99.99,,,-99.99,737.599976,,2013-07-01 21:00:00,
2013-07-01 16:00:00,84.0,48.0,30.28,NE,48,5.0,-999.0,29,-99.99,,,-99.99,662.400024,,2013-07-01 22:00:00,
2013-07-01 16:53:00,84.0,48.0,30.28,NE,48,5.0,-999.0,29,-99.99,,,-99.99,662.400024,,2013-07-01 22:53:00,
2013-07-01 17:00:00,85.0,49.0,30.27,NE,50,5.0,-999.0,29,-99.99,,,-99.99,594.099976,,2013-07-01 23:00:00,
2013-07-01 18:00:00,83.0,50.0,30.27,NNE,31,4.0,-999.0,32,-99.99,,,-99.99,389.100006,,2013-07-02 00:00:00,
2013-07-01 19:00:00,83.0,52.0,30.26,NE,44,5.0,-999.0,34,-99.99,,,-99.99,381.200012,,2013-07-02 01:00:00,
2013-07-01 20:00:00,78.0,55.0,30.26,ENE,73,5.0,-999.0,46,-99.99,,,-99.99,181.500000,,2013-07-02 02:00:00,
2013-07-01 20:53:00,78.0,55.0,30.26,ENE,73,5.0,-999.0,46,-99.99,,,-99.99,181.500000,,2013-07-02 02:53:00,
2013-07-01 21:00:00,74.0,56.0,30.26,ESE,103,3.0,-999.0,54,-99.99,,,-99.99,62.299999,,2013-07-02 03:00:00,
2013-07-01 22:00:00,69.0,56.0,30.28,ESE,113,1.0,-999.0,63,-99.99,,,-99.99,3.470000,,2013-07-02 04:00:00,
2013-07-01 22:53:00,69.0,56.0,30.28,ESE,113,1.0,-999.0,63,-99.99,,,-99.99,3.470000,,2013-07-02 04:53:00,
2013-07-01 23:00:00,61.0,56.0,30.28,SW,215,2.0,-999.0,82,-99.99,,,-99.99,0.000000,,2013-07-02 05:00:00,
2013-07-01 23:53:00,61.0,56.0,30.28,SW,215,2.0,-999.0,82,-99.99,,,-99.99,0.000000,,2013-07-02 05:53:00,